Scott, AR

4:33 PM CST on February 19, 2017 (GMT -0600)
Adams | | Change Station

Elev 259 ft 34.73 °N, 92.22 °W | Updated 40 minutes ago

Clear
Clear
76 °F
Feels Like 76 °F
N
8
Wind Variable Wind from SE

Today
High -- | Low -- °F
--% Chance of Precip.
Yesterday
High -- | Low -- °F
Precip. -- in
Pressure 30.01 in
Visibility 10.0 miles
Clouds Few 3700 ft
Scattered Clouds 25000 ft
Dew Point 58 °F
Humidity 54%
Rainfall 0.00 in
Snow Depth Not available.
6:49 AM 5:55 PM
Last Quarter, 40% visible
METAR KLIT 192153Z 13007KT 10SM FEW037 SCT250 24/14 A3000 RMK AO2 SLP160 T02440144 $
Pressure 30.01 in
Visibility 10.0 miles
Clouds Few 3700 ft
Scattered Clouds 25000 ft
Dew Point 58 °F
Humidity 54%
Rainfall 0.00 in
Snow Depth Not available.
6:49 AM 5:55 PM
Last Quarter, 40% visible
METAR KLIT 192153Z 13007KT 10SM FEW037 SCT250 24/14 A3000 RMK AO2 SLP160 T02440144 $

Get Your Daily Forecast Email!

Thanks for signing up!

Be on the lookout for a verification email in your inbox.

You'll start receiving the daily forecast at 8 AM.

×

10-Day Weather Forecast

Almanac

Astronomy

Feb. 19, 2017 Rise Set
Actual Time
Civil Twilight
Nautical Twilight
Astronomical Twilight
Moon
Length of Visible Light
Length of Day
Tomorrow will be .
, % of the Moon is Illuminated

Today's Extremes

State Highs State Lows

Community

WunderPhotos

Upload Photos

1,962,540 photos uploaded!

WunderBlog® & News

Nearby

Air Quality

  Air Quality AQ Index Pollutant
Not available.

Snow Depth

Station Depth Elevation

Earthquake Activity

City Distance Mag. Time & Date
Minimum magnitude displayed is 2.5.

Coastal Water Temperatures

Place Temperature

Stations

Nearby Weather Stations

Station Location Temp. Windchill Dew Point Humidity Wind Precip. Elev Updated Type
                   

Watches & Warnings

There are currently no watches in effect.